Carrollton, Indiana
Current Conditions -  °F | °C
As of 11:09 AM on Sunday 23 Nov 2014 (Local Time) from KGEZ Reporting Station
Overcast Overcast  
Wind Chill: 57°   Ceiling: 5500
Heat Index: 57°   Visibility: 10mi
Dew Point: 44°   Wind: 14mph
Humidity: 62%   Direction: 150°SSE
Pressure: 29.83"   Gusts: NA
Location:  39.71°N, 85.8206°W
Report Text: KGEZ 231609Z AUTO 15012KT 10SM FEW029 SCT034 OVC055 14/07 A2983 RMK AO2 T01390067
Loading
Personal Weather Stations






























Interactive Weather Map New forecast layout! Learn more

10-Day Weather Forecast

Advertisements
Track Severe Weather on mobile